Latest Coastal Weather Observations for Lord Howe Island

IDN60701

Issued at 12:52 pm EDT Sunday 21 December 2014 (issued every 10 minutes, with the page automatically refreshed every 10 minutes)

About coastal observations | Map of coastal stations | Coastal observations for NSW | Marine services | Other Formats
Station Details ID: 200839 Name: LORD HOWE ISLAND AERO Lat: -31.54 Lon: 159.08 Height: 5.0 m
Data from the previous 72 hours. | See also: Recent months at Lord Howe Island
Date/Time
EDT
Temp

°C
Wind Pressure Rain
since 9am
mm
Weather Cloud Vis
km
Sea
Height
m
Swell
Dir
 
Speed
knots
Gust
knots
hPa Trend Height
m
Period
s
Dir
21/12:30pm 21.4 SSW 5 11 1019.4 - 0.0 - Partly cloudy 10 - - - -
21/12:00pm 22.1 S 6 10 1019.6 R 0.0 Fine Mostly cloudy 30 - - - -
21/11:30am 22.0 ESE 8 15 1019.4 - 0.0 - Mostly clear 10 - - - -
21/11:00am 21.8 S 6 15 1019.2 - 0.0 - Mostly clear 10 - - - -
21/10:30am 21.7 E 11 15 1019.1 - 0.0 - Mostly clear 10 - - - -
21/10:00am 21.6 E 11 17 1019.1 - 0.0 - Mostly clear 10 - - - -
21/09:30am 21.7 ESE 7 16 1019.0 - 0.0 - Mostly clear 10 - - - -
21/09:00am 21.4 E 8 14 1019.1 R 0.0 Fine Mostly cloudy 30 - - - -
21/08:30am 22.0 E 10 13 1018.9 - 0.0 - Mostly clear 10 - - - -
21/08:00am 21.4 E 8 14 1018.7 - 0.0 - Mostly clear 10 - - - -
21/07:30am 21.2 E 8 15 1018.5 - 0.0 - Mostly clear 10 - - - -
21/07:00am 20.8 ESE 5 11 1018.3 - 0.0 - Mostly clear 10 - - - -
21/06:30am 20.4 SE 5 9 1017.9 - 0.0 - Mostly clear 10 - - - -
21/06:00am 19.8 SE 7 11 1017.6 R 0.0 Fine Mostly clear 30 - - - -
21/05:30am 19.4 SE 5 8 1017.4 - 0.0 - Partly cloudy 10 - - - -
21/05:00am 18.8 ESE 4 5 1017.4 - 0.0 - Partly cloudy 10 - - - -
21/04:30am 19.2 SE 4 6 1017.2 - 0.0 - Partly cloudy 10 - - - -
21/04:00am 19.8 SSE 5 8 1017.1 - 0.0 - Partly cloudy 10 - - - -
21/03:30am 19.3 SE 5 7 1017.0 - 0.0 - Partly cloudy 10 - - - -
21/03:00am 19.4 SE 5 7 1016.9 - 0.0 - Cloudy 10 - - - -
21/02:30am 19.1 SE 4 5 1017.1 - 0.0 - Cloudy 10 - - - -
21/02:00am 19.1 SE 5 7 1017.3 - 0.0 - - 10 - - - -
21/01:30am 19.1 SE 5 7 1017.5 - 0.0 - - 10 - - - -
21/01:00am 19.4 SE 6 8 1017.6 - 0.0 - - 10 - - - -
21/12:30am 19.6 ESE 5 10 1017.7 - 0.0 - - 10 - - - -
21/12:00am 19.7 SE 6 11 1018.0 - 0.0 - Cloudy 10 - - - -
 
Date/Time
EDT
Temp

°C
Wind Pressure Rain
since 9am
mm
Weather Cloud Vis
km
Sea
Height
m
Swell
Dir
 
Speed
knots
Gust
knots
hPa Trend Height
m
Period
s
Dir
20/11:30pm 19.6 SE 6 8 1018.2 - 0.0 - - 10 - - - -
20/11:00pm 19.8 ESE 6 8 1018.3 - 0.0 - Partly cloudy 10 - - - -
20/10:30pm 20.0 SE 2 5 1018.1 - 0.0 - Partly cloudy 10 - - - -
20/10:00pm 20.4 SSW 5 9 1017.9 - 0.0 - Partly cloudy 10 - - - -
20/09:30pm 20.3 NE 4 6 1017.7 - 0.0 - Partly cloudy 10 - - - -
20/09:00pm 20.2 SE 4 7 1017.4 - 0.0 - Cloudy 10 - - - -
20/08:30pm 20.0 SSE 4 11 1017.0 - 0.0 - Partly cloudy 10 - - - -
20/08:00pm 20.0 SSE 5 14 1016.7 - 0.0 - Partly cloudy 10 - - - -
20/07:30pm 20.4 S 6 13 1016.3 - 0.0 - Partly cloudy 10 - - - -
20/07:00pm 20.9 SSW 7 12 1016.0 - 0.0 - Partly cloudy 10 - - - -
20/06:30pm 21.1 SE 7 17 1015.6 - 0.0 - Partly cloudy 10 - - - -
20/06:00pm 21.5 SW 8 15 1015.2 - 0.0 - Cloudy 10 - - - -
20/05:30pm 21.9 SSW 8 17 1015.1 - 0.0 - Partly cloudy 10 - - - -
20/05:00pm 22.1 SW 9 16 1015.0 - 0.0 - - 10 - - - -
20/04:30pm 22.2 SSW 10 15 1014.9 - 0.0 - - 10 - - - -
20/04:00pm 22.5 SSW 11 20 1014.8 - 0.0 - - 10 - - - -
20/03:30pm 22.7 SSW 11 17 1014.7 - 0.0 - - 10 - - - -
20/03:00pm 22.4 SW 10 15 1014.6 R 0.0 Fine Mostly clear 25 - - - -
20/02:30pm 22.1 SW 10 15 1014.6 - 0.0 - - 10 - - - -
20/02:00pm 22.7 SSW 10 16 1014.8 - 0.0 - - 10 - - - -
20/01:30pm 22.7 SW 10 15 1015.0 - 0.0 - - 10 - - - -
20/01:00pm 22.5 SW 11 15 1015.2 - 0.0 - - 10 - - - -
20/12:30pm 22.2 SW 12 19 1015.4 - 0.0 - - 10 - - - -
20/12:00pm 22.3 SW 11 16 1015.5 - 0.0 - - 10 - - - -
20/11:30am 22.1 SW 10 16 1015.5 - 0.0 - Partly cloudy 10 - - - -
20/11:00am 21.9 SW 11 18 1015.5 - 0.0 - - 10 - - - -
20/10:30am 21.8 SW 11 15 1015.5 - 0.0 - - 10 - - - -
20/10:00am 21.8 SW 11 18 1015.4 - 0.0 - - 10 - - - -
20/09:30am 21.6 SW 12 19 1015.3 - 0.0 - - 10 - - - -
20/09:00am 21.6 SW 10 17 1015.2 R 15.2 Haze Mostly clear 20 - - - -
20/08:30am 21.6 SW 10 14 1015.1 - 15.0 - Partly cloudy 10 - - - -
20/08:00am 21.3 SW 9 13 1014.9 - 15.0 - Partly cloudy 10 - - - -
20/07:30am 20.4 S 8 14 1014.8 - 15.0 - Partly cloudy 10 - - - -
20/07:00am 20.1 SSW 10 17 1014.5 - 15.0 - Partly cloudy 10 - - - -
20/06:30am 20.1 SSW 11 16 1014.1 - 15.0 - Partly cloudy 10 - - - -
20/06:00am 20.1 SSW 7 12 1013.5 R 15.0 Fine Mostly clear 20 - - - -
20/05:30am 19.7 SSW 5 10 1013.1 - 15.0 - - 10 - - - -
20/05:00am 18.7 SE 3 5 1012.8 - 15.0 - - 10 - - - -
20/04:30am 19.9 SE 4 10 1012.5 - 15.0 - Partly cloudy 10 - - - -
20/04:00am 20.3 S 7 12 1012.3 - 15.0 - Cloudy 10 - - - -
20/03:30am 20.5 SSW 10 17 1012.1 - 15.0 - Partly cloudy 10 - - - -
20/03:00am 20.5 SSW 12 19 1012.0 - 15.0 - Cloudy 10 - - - -
20/02:30am 20.5 SSW 9 15 1011.8 - 15.0 - Partly cloudy 10 - - - -
20/02:00am 20.7 S 9 18 1011.7 - 15.0 - Partly cloudy 10 - - - -
20/01:30am 20.7 SSW 12 19 1011.8 - 15.0 - Partly cloudy 10 - - - -
20/01:00am 20.5 S 4 12 1012.2 - 15.0 - Partly cloudy 10 - - - -
20/12:30am 20.3 SSE 3 5 1012.4 - 15.0 - - 10 - - - -
20/12:00am 21.0 SW 5 8 1012.6 - 15.0 - Cloudy 10 - - - -
 
Date/Time
EDT
Temp

°C
Wind Pressure Rain
since 9am
mm
Weather Cloud Vis
km
Sea
Height
m
Swell
Dir
 
Speed
knots
Gust
knots
hPa Trend Height
m
Period
s
Dir
19/11:52pm 20.9 SSW 6 8 1012.7 - 15.0 - Partly cloudy 10 - - - -
19/11:50pm 20.9 SE 10 18 1012.6 - 15.0 - Partly cloudy 10 - - - -
19/11:30pm 21.1 WNW 6 12 1012.8 - 14.6 - Partly cloudy 0.8 - - - -
19/11:22pm 22.4 W 4 7 1012.7 - 9.2 - Partly cloudy 5 - - - -
19/11:21pm 22.5 WNW 4 7 1012.7 - 8.0 - Partly cloudy 10 - - - -
19/11:00pm 22.4 NNW 5 8 1012.2 - 7.0 - Partly cloudy 10 - - - -
19/10:30pm 22.5 NNW 4 6 1012.5 - 7.0 - Partly cloudy 10 - - - -
19/10:00pm 22.6 N 5 8 1012.7 - 7.0 - Partly cloudy 10 - - - -
19/09:30pm 22.6 WSW 2 5 1012.6 - 7.0 - Cloudy 10 - - - -
19/09:17pm 22.5 S 4 5 1012.5 - 7.0 - Partly cloudy 10 - - - -
19/09:00pm 22.2 SSW 1 3 1012.3 - 7.0 - Partly cloudy 10 - - - -
19/08:30pm 22.2 NNW 1 6 1012.2 - 7.0 - Partly cloudy 10 - - - -
19/08:00pm 21.9 WSW 3 4 1012.0 - 7.0 - - 10 - - - -
19/07:30pm 22.7 NW 4 7 1011.6 - 7.0 - Partly cloudy 10 - - - -
19/07:00pm 22.9 W 3 6 1011.3 - 7.0 - Partly cloudy 10 - - - -
19/06:30pm 22.9 WNW 5 7 1010.5 - 7.0 - Cloudy 10 - - - -
19/06:00pm 23.2 NNW 6 9 1010.0 - 7.0 - Cloudy 10 - - - -
19/05:30pm 24.2 WNW 7 10 1009.6 - 7.0 - Partly cloudy 10 - - - -
19/05:00pm 24.4 W 7 11 1009.6 - 7.0 - Partly cloudy 10 - - - -
19/04:30pm 24.5 W 8 11 1009.4 - 7.0 - Partly cloudy 10 - - - -
19/04:00pm 24.6 W 7 11 1009.5 - 7.0 - Partly cloudy 10 - - - -
19/03:30pm 24.2 W 8 12 1009.7 - 7.0 - Partly cloudy 10 - - - -
19/03:00pm 24.2 WNW 8 15 1009.9 R 7.0 Fine Partly cloudy 20 - - - -
19/02:30pm 23.6 NW 5 10 1010.0 - 7.0 - Partly cloudy 10 - - - -
19/02:00pm 22.3 NW 6 13 1010.4 - 7.0 - Partly cloudy 10 - - - -
19/01:30pm 22.2 NW 8 12 1010.4 - 7.0 - Partly cloudy 10 - - - -
19/01:02pm 22.1 N 5 10 1009.9 - 7.0 - Partly cloudy 10 - - - -
19/01:00pm 22.0 N 5 8 1009.9 - 7.0 - Partly cloudy 10 - - - -
19/12:30pm 21.7 NNW 7 14 1010.6 - 7.0 - Partly cloudy 10 - - - -
19/12:00pm 21.5 NW 6 14 1010.8 - 7.0 - Cloudy 10 - - - -
19/11:50am 21.4 N 5 10 1010.7 - 6.8 - Partly cloudy 10 - - - -
19/11:30am 21.1 WNW 6 10 1010.9 - 5.8 - Partly cloudy 4 - - - -
19/11:23am 21.2 WNW 5 7 1011.0 - 4.2 - Partly cloudy 6 - - - -
19/11:05am 21.3 W 8 11 1011.1 - 2.6 - Partly cloudy 9 - - - -
19/11:00am 21.4 W 8 11 1011.0 - 2.4 - Partly cloudy 10 - - - -
19/10:30am 21.7 W 7 10 1011.2 - 1.6 - Partly cloudy 10 - - - -
19/10:00am 21.5 W 8 10 1011.4 - 1.0 - Partly cloudy 10 - - - -
19/09:30am 21.2 WNW 6 12 1011.5 - 0.8 - Partly cloudy 10 - - - -
19/09:00am 21.5 W 7 11 1012.0 S 1.6 Rain Cloudy 12 - - - -
19/08:30am 21.6 WNW 7 11 1011.9 - 0.6 - Partly cloudy 10 - - - -
19/08:00am 22.1 W 12 16 1011.9 - 0.0 - Partly cloudy 10 - - - -
19/07:30am 22.6 W 12 16 1011.8 - 0.0 - Partly cloudy 10 - - - -
19/07:00am 22.9 W 12 15 1011.4 - 0.0 - Partly cloudy 10 - - - -
19/06:30am 23.2 W 12 15 1011.3 - 0.0 - Partly cloudy 10 - - - -
19/06:00am 23.4 W 11 18 1011.0 R 0.0 Fine Cloudy 15 - - - -
19/05:30am 23.5 WNW 8 14 1010.7 - 0.0 - Partly cloudy 10 - - - -
19/05:00am 23.7 WNW 10 17 1010.3 - 0.0 - Partly cloudy 10 - - - -
19/04:41am 22.1 WSW 11 14 1010.2 - 0.0 - Partly cloudy 10 - - - -
19/04:30am 22.4 WSW 13 19 1010.2 - 0.0 - Partly cloudy 10 - - - -
19/04:00am 24.1 NNW 8 17 1010.2 - 0.0 - Partly cloudy 10 - - - -
19/03:30am 24.0 NNW 12 31 1010.0 - 0.0 - Partly cloudy 10 - - - -
19/03:00am 24.0 NNW 8 17 1010.3 - 0.0 - Cloudy 10 - - - -
19/02:30am 24.1 NNW 10 21 1010.5 - 0.0 - Partly cloudy 10 - - - -
19/02:00am 24.1 NNW 9 17 1010.5 - 0.0 - Partly cloudy 10 - - - -
19/01:30am 24.2 NW 11 21 1011.1 - 0.0 - Partly cloudy 10 - - - -
19/01:00am 24.2 NNW 11 24 1011.5 - 0.0 - Partly cloudy 10 - - - -
19/12:30am 24.2 NNW 9 13 1011.9 - 0.0 - Partly cloudy 10 - - - -
19/12:00am 24.2 WNW 9 14 1011.8 - 0.0 - Cloudy 10 - - - -
 
Date/Time
EDT
Temp

°C
Wind Pressure Rain
since 9am
mm
Weather Cloud Vis
km
Sea
Height
m
Swell
Dir
 
Speed
knots
Gust
knots
hPa Trend Height
m
Period
s
Dir
18/11:30pm 24.1 NNW 7 13 1011.8 - 0.0 - Partly cloudy 10 - - - -
18/11:00pm 24.1 NW 6 13 1012.3 - 0.0 - Partly cloudy 10 - - - -
18/10:30pm 24.0 NNE 5 13 1012.1 - 0.0 - Partly cloudy 10 - - - -
18/10:00pm 24.0 NNE 7 13 1012.1 - 0.0 - Partly cloudy 10 - - - -
18/09:30pm 24.1 NNE 8 16 1012.3 - 0.0 - Cloudy 10 - - - -
18/09:00pm 24.1 NE 6 14 1012.1 - 0.0 - Cloudy 10 - - - -
18/08:30pm 24.1 NNE 9 18 1011.8 - 0.0 - Cloudy 10 - - - -
18/08:00pm 24.1 ENE 8 12 1011.3 - 0.0 - Cloudy 10 - - - -
18/07:30pm 24.3 E 5 8 1011.5 - 0.0 - Cloudy 10 - - - -
18/07:00pm 24.3 ENE 5 8 1011.3 - 0.0 - Cloudy 10 - - - -
18/06:30pm 24.6 ENE 4 8 1010.6 - 0.0 - Partly cloudy 10 - - - -
18/06:00pm 24.7 N 4 8 1010.2 - 0.0 - Cloudy 10 - - - -
18/05:30pm 24.7 NNE 4 11 1010.2 - 0.0 - Partly cloudy 10 - - - -
18/05:00pm 25.3 NNW 6 12 1010.8 - 0.0 - Partly cloudy 10 - - - -
18/04:30pm 25.0 N 7 13 1010.9 - 0.0 - Partly cloudy 10 - - - -
18/04:00pm 25.4 NE 4 8 1010.9 - 0.0 - Partly cloudy 10 - - - -
18/03:30pm 25.0 N 6 10 1010.9 - 0.0 - Partly cloudy 10 - - - -
18/03:00pm 26.0 NNW 9 15 1011.2 R 0.0 Haze Mostly cloudy 15 - - - -
18/02:30pm 26.2 NNE 6 10 1011.2 - 0.0 - Mostly clear 10 - - - -
18/02:28pm 26.1 NNE 6 10 1011.2 - 0.0 - Mostly clear 10 - - - -
18/02:00pm 25.4 N 8 14 1011.2 - 0.0 - Mostly clear 10 - - - -
18/01:30pm 25.3 SW 5 8 1011.5 - 0.0 - Mostly clear 10 - - - -
18/01:00pm 24.8 SW 6 9 1011.9 - 0.0 - Mostly clear 10 - - - -
18/12:55pm 24.9 SW 7 9 1012.0 - 0.0 - Mostly clear 10 - - - -

Other Formats:

Comma delimited format used in spreadsheet applications
http://www.bom.gov.au/fwo/IDN60701/IDN60701.94995.axf

JavaScript Object Notation format (JSON) in row-major order
http://www.bom.gov.au/fwo/IDN60701/IDN60701.94995.json